createdAt,value
2018-08-06T00:00:12.091Z,10.27
2018-08-06T00:01:12.099Z,10.11
2018-08-06T00:02:12.104Z,10.1
2018-08-06T00:03:12.158Z,10.13
2018-08-06T00:04:12.108Z,10.14
2018-08-06T00:05:12.095Z,10.08
2018-08-06T00:06:12.141Z,10.11
2018-08-06T00:07:12.105Z,10.2
2018-08-06T00:08:12.110Z,10.24
2018-08-06T00:09:12.155Z,10.18
2018-08-06T00:10:12.053Z,10.21
2018-08-06T00:11:12.215Z,10.16
2018-08-06T00:12:12.091Z,10.13
2018-08-06T00:13:12.056Z,10.16
2018-08-06T00:14:12.107Z,10.11
2018-08-06T00:15:12.067Z,10.14
2018-08-06T00:16:12.096Z,10.11
2018-08-06T00:17:12.106Z,10.17
2018-08-06T00:18:12.077Z,10.11
2018-08-06T00:19:12.097Z,10.12
2018-08-06T00:20:12.166Z,10.1
2018-08-06T00:21:12.042Z,10.16
2018-08-06T00:22:12.215Z,10.1
2018-08-06T00:23:12.054Z,10.08
2018-08-06T00:24:12.055Z,10.09
2018-08-06T00:25:12.033Z,10.1
2018-08-06T00:26:12.059Z,10.14
2018-08-06T00:27:12.083Z,10.1
2018-08-06T00:28:12.147Z,10.07
2018-08-06T00:29:12.084Z,10.08
2018-08-06T00:30:12.216Z,10.11
2018-08-06T00:31:12.093Z,10.12
2018-08-06T00:32:12.078Z,10.14
2018-08-06T00:33:12.032Z,10.07
2018-08-06T00:34:12.032Z,10.08
2018-08-06T00:35:12.076Z,10.1
2018-08-06T00:36:12.028Z,10.1
2018-08-06T00:37:12.035Z,10.09
2018-08-06T00:38:12.043Z,10.08
2018-08-06T00:39:12.001Z,10.14
2018-08-06T00:40:12.061Z,10.07
2018-08-06T00:41:12.161Z,10.11
2018-08-06T00:42:12.012Z,10.06
2018-08-06T00:43:12.053Z,10.06
2018-08-06T00:44:12.027Z,10.05
2018-08-06T00:45:12.028Z,10.19
2018-08-06T00:46:12.026Z,10.24
2018-08-06T00:47:12.024Z,10.17
2018-08-06T00:48:12.009Z,10.15
2018-08-06T00:49:12.016Z,10.17
2018-08-06T00:50:12.027Z,10.13
2018-08-06T00:51:11.990Z,10.14
2018-08-06T00:52:12.038Z,10.14
2018-08-06T00:53:12.006Z,10.14
2018-08-06T00:54:12.011Z,10.18
2018-08-06T00:55:12.187Z,10.19
2018-08-06T00:56:12.209Z,10.15
2018-08-06T00:57:12.012Z,10.15
2018-08-06T00:58:12.072Z,10.19
2018-08-06T00:59:11.993Z,10.11
2018-08-06T01:00:12.031Z,10.17
2018-08-06T01:01:12.004Z,10.18
2018-08-06T01:02:12.098Z,10.19
2018-08-06T01:03:12.154Z,10.25
2018-08-06T01:04:12.217Z,10.28
2018-08-06T01:05:12.019Z,10.3
2018-08-06T01:06:12.026Z,10.29
2018-08-06T01:07:12.124Z,10.33
2018-08-06T01:08:12.081Z,10.34
2018-08-06T01:09:12.122Z,10.26
2018-08-06T01:10:12.175Z,10.24
2018-08-06T01:11:12.001Z,10.35
2018-08-06T01:12:12.063Z,10.27
2018-08-06T01:13:12.091Z,10.3
2018-08-06T01:14:12.071Z,10.39
2018-08-06T01:15:12.107Z,10.31
2018-08-06T01:16:12.066Z,10.22
2018-08-06T01:17:12.097Z,10.23
2018-08-06T01:18:12.090Z,10.23
2018-08-06T01:19:12.110Z,10.24
2018-08-06T01:20:12.064Z,10.27
2018-08-06T01:21:12.029Z,10.41
2018-08-06T01:22:12.044Z,10.47
2018-08-06T01:23:12.058Z,10.33
2018-08-06T01:24:12.016Z,10.43
2018-08-06T01:25:12.059Z,10.49
2018-08-06T01:26:12.060Z,10.45
2018-08-06T01:27:12.079Z,10.43
2018-08-06T01:28:12.231Z,10.57
2018-08-06T01:29:12.045Z,10.57
2018-08-06T01:30:12.026Z,10.44
2018-08-06T01:31:12.105Z,10.4
2018-08-06T01:32:12.052Z,10.56
2018-08-06T01:33:12.140Z,10.44
2018-08-06T01:34:12.092Z,10.36
2018-08-06T01:35:12.061Z,10.35
2018-08-06T01:36:12.001Z,10.36
2018-08-06T01:37:12.095Z,10.48
2018-08-06T01:38:12.174Z,10.38
2018-08-06T01:39:12.088Z,10.45
2018-08-06T01:40:12.072Z,10.39
2018-08-06T01:41:12.162Z,10.41
2018-08-06T01:42:12.107Z,10.38
2018-08-06T01:43:12.150Z,10.41
2018-08-06T01:44:12.012Z,10.42
2018-08-06T01:45:12.095Z,10.5
2018-08-06T01:46:12.109Z,10.45
2018-08-06T01:47:12.094Z,10.44
2018-08-06T01:48:12.181Z,10.45
2018-08-06T01:49:12.067Z,10.5
2018-08-06T01:50:12.018Z,10.41
2018-08-06T01:51:11.985Z,10.38
2018-08-06T01:52:11.997Z,10.51
2018-08-06T01:53:12.023Z,10.49
2018-08-06T01:54:12.016Z,10.4
2018-08-06T01:55:12.030Z,10.56
2018-08-06T01:56:12.026Z,10.64
2018-08-06T01:57:12.044Z,10.6
2018-08-06T01:58:12.005Z,10.58
2018-08-06T01:59:11.995Z,10.52
2018-08-06T02:00:11.982Z,10.59
2018-08-06T02:01:12.054Z,10.64
2018-08-06T02:02:12.007Z,10.61
2018-08-06T02:03:12.006Z,10.62
2018-08-06T02:04:11.968Z,10.57
2018-08-06T02:05:11.984Z,10.55
2018-08-06T02:06:12.027Z,10.67
2018-08-06T02:07:12.018Z,10.62
2018-08-06T02:08:12.040Z,10.65
2018-08-06T02:09:12.015Z,10.67
2018-08-06T02:10:12.052Z,10.67
2018-08-06T02:11:12.035Z,10.72
2018-08-06T02:12:12.015Z,10.73
2018-08-06T02:13:12.065Z,10.71
2018-08-06T02:14:12.089Z,10.54
2018-08-06T02:15:12.142Z,10.6
2018-08-06T02:16:12.060Z,10.76
2018-08-06T02:17:11.997Z,10.62
2018-08-06T02:18:12.133Z,10.61
2018-08-06T02:19:12.090Z,10.74
2018-08-06T02:20:12.072Z,10.77
2018-08-06T02:21:12.164Z,10.72
2018-08-06T02:22:12.067Z,10.73
2018-08-06T02:23:11.972Z,10.69
2018-08-06T02:24:12.045Z,10.62
2018-08-06T02:25:12.083Z,10.76
2018-08-06T02:26:11.984Z,10.84
2018-08-06T02:27:12.102Z,10.68
2018-08-06T02:28:11.987Z,10.57
2018-08-06T02:29:12.024Z,10.89
2018-08-06T02:30:12.031Z,10.91
2018-08-06T02:31:12.048Z,10.95
2018-08-06T02:32:12.230Z,10.92
2018-08-06T02:33:12.155Z,10.96
2018-08-06T02:34:12.068Z,10.97
2018-08-06T02:35:12.091Z,10.98
2018-08-06T02:36:12.092Z,10.91
2018-08-06T02:37:12.071Z,10.94
2018-08-06T02:38:12.001Z,10.83
2018-08-06T02:39:12.115Z,10.76
2018-08-06T02:40:12.134Z,10.94
2018-08-06T02:41:12.194Z,10.91
2018-08-06T02:42:12.064Z,11.03
2018-08-06T02:43:12.143Z,11.09
2018-08-06T02:44:12.106Z,10.89
2018-08-06T02:45:12.094Z,11
2018-08-06T02:46:12.126Z,10.91
2018-08-06T02:47:12.032Z,10.96
2018-08-06T02:48:12.059Z,11.03
2018-08-06T02:49:12.005Z,11.04
2018-08-06T02:50:12.088Z,10.91
2018-08-06T02:51:12.028Z,10.87
2018-08-06T02:52:12.020Z,10.96
2018-08-06T02:53:12.149Z,11.09
2018-08-06T02:54:12.092Z,11.14
2018-08-06T02:55:12.013Z,11.08
2018-08-06T02:56:11.961Z,10.92
2018-08-06T02:57:11.989Z,11.1
2018-08-06T02:58:12.033Z,11.12
2018-08-06T02:59:12.030Z,10.98
2018-08-06T03:00:12.608Z,10.86
2018-08-06T03:01:12.077Z,10.98
2018-08-06T03:02:12.113Z,11.04
2018-08-06T03:03:11.992Z,11.03
2018-08-06T03:04:11.984Z,10.91
2018-08-06T03:05:12.000Z,11.03
2018-08-06T03:06:12.340Z,10.93
2018-08-06T03:07:12.037Z,10.97
2018-08-06T03:08:12.029Z,10.99
2018-08-06T03:09:11.988Z,10.89
2018-08-06T03:10:12.027Z,10.87
2018-08-06T03:11:12.023Z,10.91
2018-08-06T03:12:11.985Z,10.88
2018-08-06T03:13:11.989Z,10.81
2018-08-06T03:14:11.997Z,10.85
2018-08-06T03:15:11.994Z,10.84
2018-08-06T03:16:11.982Z,10.97
2018-08-06T03:17:12.020Z,10.89
2018-08-06T03:18:12.002Z,10.98
2018-08-06T03:19:12.018Z,10.94
2018-08-06T03:20:11.978Z,10.86
2018-08-06T03:21:11.970Z,11.05
2018-08-06T03:22:11.987Z,11.05
2018-08-06T03:23:12.021Z,10.86
2018-08-06T03:24:11.966Z,10.83
2018-08-06T03:25:11.982Z,10.87
2018-08-06T03:26:12.078Z,11.03
2018-08-06T03:27:12.113Z,11.05
2018-08-06T03:28:11.982Z,10.88
2018-08-06T03:29:12.015Z,11.05
2018-08-06T03:30:11.995Z,11.1
2018-08-06T03:31:12.079Z,11.06
2018-08-06T03:32:11.977Z,10.95
2018-08-06T03:33:11.967Z,10.96
2018-08-06T03:34:12.130Z,11.09
2018-08-06T03:35:12.152Z,10.99
2018-08-06T03:36:11.980Z,10.97
2018-08-06T03:37:11.994Z,11
2018-08-06T03:38:11.963Z,11.06
2018-08-06T03:39:12.245Z,11.09
2018-08-06T03:40:12.643Z,10.94
2018-08-06T03:41:12.076Z,11.11
2018-08-06T03:42:12.074Z,11.03
2018-08-06T03:43:12.479Z,11.05
2018-08-06T03:44:12.140Z,11.06
2018-08-06T03:45:12.002Z,11.14
2018-08-06T03:46:11.978Z,11
2018-08-06T03:47:12.017Z,11.19
2018-08-06T03:48:12.133Z,11.2
2018-08-06T03:49:11.974Z,11.17
2018-08-06T03:50:46.821Z,11.12
2018-08-06T03:51:12.105Z,11.05
2018-08-06T03:52:11.942Z,10.97
2018-08-06T03:53:12.184Z,11.04
2018-08-06T03:54:12.031Z,11.29
2018-08-06T03:55:12.051Z,11.26
2018-08-06T03:56:12.009Z,11.21
2018-08-06T03:57:11.977Z,11.2
2018-08-06T03:58:19.566Z,11.15
2018-08-06T03:59:12.130Z,11.2
2018-08-06T04:00:12.038Z,11.09
2018-08-06T04:01:12.072Z,11.21
2018-08-06T04:02:12.272Z,10.99
2018-08-06T04:03:12.066Z,11.28
2018-08-06T04:04:12.118Z,11.18
2018-08-06T04:05:12.182Z,11.27
2018-08-06T04:06:12.014Z,11.23
2018-08-06T04:07:12.120Z,11.24
2018-08-06T04:08:12.063Z,11.26
2018-08-06T04:09:12.049Z,11.3
2018-08-06T04:10:12.014Z,11.17
2018-08-06T04:11:11.979Z,11.28
2018-08-06T04:12:12.033Z,11.18
2018-08-06T04:13:12.033Z,11.01
2018-08-06T04:14:12.031Z,10.99
2018-08-06T04:15:12.059Z,11
2018-08-06T04:16:12.080Z,10.97
2018-08-06T04:17:12.166Z,11.15
2018-08-06T04:18:12.091Z,11.17
2018-08-06T04:19:12.033Z,11.14
2018-08-06T04:20:12.082Z,11.19
2018-08-06T04:21:12.106Z,11.1
2018-08-06T04:22:12.013Z,11.05
2018-08-06T04:23:12.086Z,11.13
2018-08-06T04:24:12.024Z,11.17
2018-08-06T04:25:12.048Z,11.1
2018-08-06T04:26:12.060Z,11.07
2018-08-06T04:27:11.987Z,11.3
2018-08-06T04:28:11.990Z,11.11
2018-08-06T04:29:12.016Z,11.24
2018-08-06T04:30:12.010Z,11.11
2018-08-06T04:31:12.016Z,11.19
2018-08-06T04:32:12.052Z,11.18
2018-08-06T04:33:12.597Z,11.23
2018-08-06T04:34:12.035Z,11.2
2018-08-06T04:35:12.142Z,11.02
2018-08-06T04:36:12.183Z,10.94
2018-08-06T04:37:12.155Z,10.95
2018-08-06T04:38:12.012Z,10.87
2018-08-06T04:39:12.098Z,11.02
2018-08-06T04:40:12.233Z,10.99
2018-08-06T04:41:12.027Z,10.96
2018-08-06T04:42:12.232Z,11.1
2018-08-06T04:43:12.114Z,10.94
2018-08-06T04:44:12.127Z,10.99
2018-08-06T04:45:12.100Z,10.99
2018-08-06T04:46:12.058Z,11
2018-08-06T04:47:12.161Z,10.97
2018-08-06T04:48:12.127Z,11.01
2018-08-06T04:49:12.056Z,11
2018-08-06T04:50:12.059Z,11.04
2018-08-06T04:51:12.102Z,11
2018-08-06T04:52:12.106Z,11.01
2018-08-06T04:53:12.120Z,11.03
2018-08-06T04:54:12.040Z,11.03
2018-08-06T04:55:12.069Z,11.11
2018-08-06T04:56:12.082Z,11.14
2018-08-06T04:57:12.082Z,11.1
2018-08-06T04:58:12.096Z,11.07
2018-08-06T04:59:12.149Z,11.08
2018-08-06T05:00:12.182Z,11.09
2018-08-06T05:01:12.065Z,11.09
2018-08-06T05:02:12.022Z,11.03
2018-08-06T05:03:12.035Z,11.13
2018-08-06T05:04:12.185Z,11.07
2018-08-06T05:05:12.089Z,11.08
2018-08-06T05:06:12.067Z,11.12
2018-08-06T05:07:12.073Z,11.07
2018-08-06T05:08:12.077Z,11.12
2018-08-06T05:09:12.086Z,11.13
2018-08-06T05:10:12.126Z,11.11
2018-08-06T05:11:12.134Z,11.11
2018-08-06T05:12:12.046Z,11.08
2018-08-06T05:13:12.114Z,11.15
2018-08-06T05:14:12.121Z,11.15
2018-08-06T05:15:12.090Z,11.1
2018-08-06T05:16:12.209Z,11.17
2018-08-06T05:17:12.377Z,11.17
2018-08-06T05:18:12.075Z,11.16
2018-08-06T05:19:12.098Z,11.18
2018-08-06T05:20:12.095Z,11.19
2018-08-06T05:21:12.074Z,11.18
2018-08-06T05:22:12.055Z,11.16
2018-08-06T05:23:12.220Z,11.19
2018-08-06T05:24:12.135Z,11.16
2018-08-06T05:25:12.165Z,11.14
2018-08-06T05:26:12.105Z,11.17
2018-08-06T05:27:12.107Z,11.14
2018-08-06T05:28:12.092Z,11.27
2018-08-06T05:29:12.158Z,11.2
2018-08-06T05:30:12.119Z,11.25
2018-08-06T05:31:12.307Z,11.24
2018-08-06T05:32:12.136Z,11.2
2018-08-06T05:33:12.098Z,11.24
2018-08-06T05:34:12.081Z,11.14
2018-08-06T05:35:12.137Z,11.18
2018-08-06T05:36:12.130Z,11.24
2018-08-06T05:37:12.100Z,11.27
2018-08-06T05:38:12.185Z,11.25
2018-08-06T05:39:12.143Z,11.28
2018-08-06T05:40:12.228Z,11.22
2018-08-06T05:41:12.203Z,11.23
2018-08-06T05:42:12.108Z,11.26
2018-08-06T05:43:12.111Z,11.27
2018-08-06T05:44:12.356Z,11.3
2018-08-06T05:45:12.156Z,11.26
2018-08-06T05:46:12.123Z,11.36
2018-08-06T05:47:12.215Z,11.33
2018-08-06T05:48:12.409Z,11.33
2018-08-06T05:49:12.262Z,11.28
2018-08-06T05:50:12.166Z,11.29
2018-08-06T05:51:12.111Z,11.25
2018-08-06T05:52:12.172Z,11.33
2018-08-06T05:53:12.172Z,11.31
2018-08-06T05:54:12.155Z,11.28
2018-08-06T05:55:12.191Z,11.3
2018-08-06T05:56:12.139Z,11.3
2018-08-06T05:57:12.154Z,11.34
2018-08-06T05:58:12.382Z,11.33
2018-08-06T05:59:12.304Z,11.3
2018-08-06T06:00:12.128Z,11.29
2018-08-06T06:01:12.349Z,11.33
2018-08-06T06:02:13.932Z,11.38
2018-08-06T06:03:12.482Z,11.42
2018-08-06T06:04:12.214Z,11.44
2018-08-06T06:05:12.912Z,11.41
2018-08-06T06:06:12.963Z,11.38
2018-08-06T06:07:13.078Z,11.42
2018-08-06T06:08:12.380Z,11.4
2018-08-06T06:09:12.133Z,11.41
2018-08-06T06:10:12.140Z,11.38
2018-08-06T06:11:12.224Z,11.37
2018-08-06T06:12:12.220Z,11.37
2018-08-06T06:13:12.148Z,11.4
2018-08-06T06:14:12.161Z,11.41
2018-08-06T06:15:12.188Z,11.44
2018-08-06T06:16:17.151Z,11.45
2018-08-06T06:17:12.415Z,11.42
2018-08-06T06:18:12.158Z,11.44
2018-08-06T06:19:12.477Z,11.43
2018-08-06T06:20:12.149Z,11.49
2018-08-06T06:21:14.801Z,11.46
2018-08-06T06:22:12.147Z,11.46
2018-08-06T06:23:12.335Z,11.56
2018-08-06T06:24:12.215Z,11.53
2018-08-06T06:25:12.241Z,11.5
2018-08-06T06:26:12.188Z,11.48
2018-08-06T06:27:12.343Z,11.56
2018-08-06T06:28:12.310Z,11.52
2018-08-06T06:29:12.179Z,11.49
2018-08-06T06:30:12.212Z,11.53
2018-08-06T06:31:12.248Z,11.52
2018-08-06T06:32:12.329Z,11.52
2018-08-06T06:33:12.208Z,11.52
2018-08-06T06:34:12.336Z,11.56
2018-08-06T06:35:12.229Z,11.55
2018-08-06T06:36:12.216Z,11.53
2018-08-06T06:37:12.233Z,11.56
2018-08-06T06:38:12.197Z,11.61
2018-08-06T06:39:12.229Z,11.57
2018-08-06T06:40:12.191Z,11.54
2018-08-06T06:41:12.405Z,11.57
2018-08-06T06:42:12.193Z,11.59
2018-08-06T06:43:12.359Z,11.57
2018-08-06T06:44:12.186Z,11.57
2018-08-06T06:45:12.231Z,11.58
2018-08-06T06:46:12.206Z,11.63
2018-08-06T06:47:12.256Z,11.66
2018-08-06T06:48:12.219Z,11.65
2018-08-06T06:49:12.698Z,11.65
2018-08-06T06:50:12.228Z,11.69
2018-08-06T06:51:12.291Z,11.73
2018-08-06T06:52:12.278Z,11.73
2018-08-06T06:53:12.210Z,11.72
2018-08-06T06:54:12.201Z,11.71
2018-08-06T06:55:12.195Z,11.76
2018-08-06T06:56:12.231Z,11.76
2018-08-06T06:57:12.236Z,11.8
2018-08-06T06:58:12.246Z,11.74
2018-08-06T06:59:12.219Z,11.79
2018-08-06T07:00:12.296Z,11.77
2018-08-06T07:01:12.225Z,11.81
2018-08-06T07:02:12.209Z,11.8
2018-08-06T07:03:12.212Z,11.83
2018-08-06T07:04:12.208Z,11.88
2018-08-06T07:05:12.234Z,11.84
2018-08-06T07:06:12.223Z,11.73
2018-08-06T07:07:12.260Z,11.8
2018-08-06T07:08:12.225Z,11.75
2018-08-06T07:09:12.325Z,11.75
2018-08-06T07:10:12.277Z,11.65
2018-08-06T07:11:12.294Z,11.68
2018-08-06T07:12:12.245Z,11.77
2018-08-06T07:13:12.223Z,11.77
2018-08-06T07:14:12.396Z,11.79
2018-08-06T07:15:12.296Z,11.71
2018-08-06T07:16:12.312Z,11.68
2018-08-06T07:17:12.231Z,11.87
2018-08-06T07:18:12.418Z,11.71
2018-08-06T07:19:12.505Z,11.74
2018-08-06T07:20:12.548Z,11.72
2018-08-06T07:21:12.246Z,11.77
2018-08-06T07:22:12.258Z,11.84
2018-08-06T07:23:12.448Z,11.85
2018-08-06T07:24:12.228Z,12
2018-08-06T07:25:12.218Z,12.01
2018-08-06T07:26:12.253Z,11.91
2018-08-06T07:27:12.245Z,11.95
2018-08-06T07:28:12.247Z,11.85
2018-08-06T07:29:12.319Z,11.77
2018-08-06T07:30:12.291Z,11.86
2018-08-06T07:31:12.267Z,11.83
2018-08-06T07:32:12.277Z,11.8
2018-08-06T07:33:12.314Z,11.77
2018-08-06T07:34:12.514Z,11.85
2018-08-06T07:35:12.223Z,11.91
2018-08-06T07:36:12.364Z,11.99
2018-08-06T07:37:12.309Z,11.99
2018-08-06T07:38:12.252Z,11.93
2018-08-06T07:39:12.259Z,11.82
2018-08-06T07:40:12.674Z,11.83
2018-08-06T07:41:12.349Z,11.88
2018-08-06T07:42:12.438Z,11.87
2018-08-06T07:43:12.697Z,11.92
2018-08-06T07:44:12.231Z,11.95
2018-08-06T07:45:12.272Z,11.99
2018-08-06T07:46:12.521Z,11.94
2018-08-06T07:47:12.306Z,11.93
2018-08-06T07:48:12.281Z,11.88
2018-08-06T07:49:12.332Z,11.84
2018-08-06T07:50:12.428Z,11.87
2018-08-06T07:51:12.237Z,11.8
2018-08-06T07:52:12.258Z,11.81
2018-08-06T07:53:12.327Z,11.84
2018-08-06T07:54:12.477Z,11.78
2018-08-06T07:55:12.293Z,11.87
2018-08-06T07:56:12.267Z,11.86
2018-08-06T07:57:12.306Z,11.86
2018-08-06T07:58:12.368Z,11.85
2018-08-06T07:59:12.539Z,11.87
2018-08-06T08:00:12.268Z,11.92
2018-08-06T08:01:12.239Z,11.89
2018-08-06T08:02:12.269Z,11.97
2018-08-06T08:03:12.265Z,11.97
2018-08-06T08:04:12.377Z,11.98
2018-08-06T08:05:12.279Z,11.92
2018-08-06T08:06:12.312Z,11.9
2018-08-06T08:07:12.279Z,11.92
2018-08-06T08:08:12.276Z,11.99
2018-08-06T08:09:12.309Z,11.98
2018-08-06T08:10:12.282Z,11.98
2018-08-06T08:11:12.305Z,11.95
2018-08-06T08:12:12.309Z,11.92
2018-08-06T08:13:12.275Z,11.98
2018-08-06T08:14:12.287Z,11.96
2018-08-06T08:15:12.279Z,11.86
2018-08-06T08:16:12.324Z,11.89
2018-08-06T08:17:12.302Z,11.84
2018-08-06T08:18:12.293Z,11.92
2018-08-06T08:19:12.286Z,11.91
2018-08-06T08:20:14.139Z,11.97
2018-08-06T08:21:12.352Z,12.01
2018-08-06T08:22:12.330Z,11.98
2018-08-06T08:23:12.358Z,11.98
2018-08-06T08:24:12.319Z,11.99
2018-08-06T08:25:12.305Z,11.98
2018-08-06T08:26:12.417Z,12.05
2018-08-06T08:27:12.445Z,12
2018-08-06T08:28:12.346Z,12.01
2018-08-06T08:29:12.425Z,12.05
2018-08-06T08:30:12.311Z,12.08
2018-08-06T08:31:12.383Z,12.02
2018-08-06T08:32:12.391Z,12.08
2018-08-06T08:33:12.365Z,12.11
2018-08-06T08:34:12.354Z,12.08
2018-08-06T08:35:12.601Z,12.11
2018-08-06T08:36:12.503Z,12.11
2018-08-06T08:37:12.355Z,12.11
2018-08-06T08:38:12.363Z,12.17
2018-08-06T08:39:12.317Z,12.18
2018-08-06T08:40:12.394Z,12.08
2018-08-06T08:41:12.354Z,12.12
2018-08-06T08:42:12.500Z,12.05
2018-08-06T08:43:13.267Z,12.13
2018-08-06T08:44:12.336Z,12.1
2018-08-06T08:45:12.677Z,12.22
2018-08-06T08:46:12.408Z,12.21
2018-08-06T08:47:12.399Z,12.19
2018-08-06T08:48:12.372Z,12.09
2018-08-06T08:49:12.424Z,12.14
2018-08-06T08:50:12.631Z,12.17
2018-08-06T08:51:12.349Z,12.24
2018-08-06T08:52:12.437Z,12.19
2018-08-06T08:53:12.347Z,12.13
2018-08-06T08:54:12.511Z,12.22
2018-08-06T08:55:12.397Z,12.3
2018-08-06T08:56:12.433Z,12.21
2018-08-06T08:57:12.604Z,12.23
2018-08-06T08:58:12.611Z,12.25
2018-08-06T08:59:12.367Z,12.21
2018-08-06T09:00:12.374Z,12.26
2018-08-06T09:01:12.362Z,12.33
2018-08-06T09:02:12.356Z,12.29
2018-08-06T09:03:12.414Z,12.32
2018-08-06T09:04:12.363Z,12.25
2018-08-06T09:05:12.370Z,12.25
2018-08-06T09:06:12.381Z,12.25
2018-08-06T09:07:12.615Z,12.28
2018-08-06T09:08:12.450Z,12.34
2018-08-06T09:09:12.366Z,12.26
2018-08-06T09:10:12.375Z,12.35
2018-08-06T09:11:12.487Z,12.29
2018-08-06T09:12:12.492Z,12.25
2018-08-06T09:13:12.439Z,12.28
2018-08-06T09:14:12.708Z,12.36
2018-08-06T09:15:12.449Z,12.36
2018-08-06T09:16:12.400Z,12.37
2018-08-06T09:17:12.416Z,12.4
2018-08-06T09:18:12.396Z,12.36
2018-08-06T09:19:12.386Z,12.42
2018-08-06T09:20:12.425Z,12.4
2018-08-06T09:21:12.912Z,12.37
2018-08-06T09:22:12.419Z,12.39
2018-08-06T09:23:12.427Z,12.37
2018-08-06T09:24:12.388Z,12.37
2018-08-06T09:25:12.469Z,12.33
2018-08-06T09:26:12.416Z,12.38
2018-08-06T09:27:12.411Z,12.45
2018-08-06T09:28:12.398Z,12.52
2018-08-06T09:29:12.421Z,12.49
2018-08-06T09:30:12.388Z,12.53
2018-08-06T09:31:12.447Z,12.49
2018-08-06T09:32:12.427Z,12.5
2018-08-06T09:33:12.416Z,12.43
2018-08-06T09:34:12.378Z,12.47
2018-08-06T09:35:12.387Z,12.54
2018-08-06T09:36:12.385Z,12.59
2018-08-06T09:37:12.477Z,12.53
2018-08-06T09:38:12.424Z,12.59
2018-08-06T09:39:12.419Z,12.5
2018-08-06T09:40:12.440Z,12.64
2018-08-06T09:41:12.481Z,12.58
2018-08-06T09:42:12.496Z,12.55
2018-08-06T09:43:12.404Z,12.64
2018-08-06T09:44:12.480Z,12.57
2018-08-06T09:45:12.453Z,12.38
2018-08-06T09:46:12.467Z,12.41
2018-08-06T09:47:12.709Z,12.44
2018-08-06T09:48:12.398Z,12.49
2018-08-06T09:49:12.391Z,12.48
2018-08-06T09:50:12.523Z,12.42
2018-08-06T09:51:12.511Z,12.5
2018-08-06T09:52:12.419Z,12.38
2018-08-06T09:53:12.463Z,12.52
2018-08-06T09:54:12.468Z,12.57
2018-08-06T09:55:12.435Z,12.51
2018-08-06T09:56:12.408Z,12.43
2018-08-06T09:57:13.448Z,12.48
2018-08-06T09:58:12.407Z,12.43
2018-08-06T09:59:12.467Z,12.39
2018-08-06T10:00:12.889Z,12.42
2018-08-06T10:01:12.402Z,12.43
2018-08-06T10:02:12.455Z,12.44
2018-08-06T10:03:12.443Z,12.44
2018-08-06T10:04:13.242Z,12.58
2018-08-06T10:05:12.437Z,12.57
2018-08-06T10:06:13.893Z,12.41
2018-08-06T10:07:12.418Z,12.54
2018-08-06T10:08:12.597Z,12.54
2018-08-06T10:09:12.418Z,12.54
2018-08-06T10:10:12.868Z,12.64
2018-08-06T10:11:13.113Z,12.62
2018-08-06T10:12:12.610Z,12.68
2018-08-06T10:13:12.488Z,12.65
2018-08-06T10:14:12.499Z,12.7
2018-08-06T10:15:12.428Z,12.63
2018-08-06T10:16:12.460Z,12.66
2018-08-06T10:17:12.439Z,12.73
2018-08-06T10:18:12.470Z,12.58
2018-08-06T10:19:13.746Z,12.54
2018-08-06T10:20:12.542Z,12.62
2018-08-06T10:21:12.581Z,12.54
2018-08-06T10:22:12.579Z,12.61
2018-08-06T10:23:12.538Z,12.61
2018-08-06T10:24:12.512Z,12.74
2018-08-06T10:25:12.487Z,12.76
2018-08-06T10:26:12.463Z,12.84
2018-08-06T10:27:12.508Z,12.69
2018-08-06T10:28:12.613Z,12.55
2018-08-06T10:29:12.658Z,12.74
2018-08-06T10:30:12.942Z,12.68
2018-08-06T10:31:12.529Z,12.55
2018-08-06T10:32:12.466Z,12.41
2018-08-06T10:33:12.515Z,12.42
2018-08-06T10:34:12.465Z,12.55
2018-08-06T10:35:12.538Z,12.73
2018-08-06T10:36:12.456Z,12.63
2018-08-06T10:37:12.507Z,12.81
2018-08-06T10:38:12.507Z,12.74
2018-08-06T10:39:12.536Z,12.46
2018-08-06T10:40:12.797Z,12.44
2018-08-06T10:41:12.463Z,12.56
2018-08-06T10:42:12.550Z,12.63
2018-08-06T10:43:12.491Z,12.69
2018-08-06T10:44:12.472Z,12.63
2018-08-06T10:45:12.566Z,12.62
2018-08-06T10:46:12.502Z,12.62
2018-08-06T10:47:12.499Z,12.57
2018-08-06T10:48:12.852Z,12.63
2018-08-06T10:49:12.493Z,12.53
2018-08-06T10:50:12.510Z,12.46
2018-08-06T10:51:12.476Z,12.56
2018-08-06T10:52:12.861Z,12.7
2018-08-06T10:53:12.665Z,12.63
2018-08-06T10:54:12.804Z,12.47
2018-08-06T10:55:12.677Z,12.36
2018-08-06T10:56:12.582Z,12.47
2018-08-06T10:57:12.649Z,12.56
2018-08-06T10:58:12.730Z,12.53
2018-08-06T10:59:12.654Z,12.61
2018-08-06T11:00:12.524Z,12.68
2018-08-06T11:01:12.920Z,12.66
2018-08-06T11:02:12.505Z,12.5
2018-08-06T11:03:12.630Z,12.63
2018-08-06T11:04:12.632Z,12.66
2018-08-06T11:05:13.079Z,12.73
2018-08-06T11:06:12.578Z,12.63
2018-08-06T11:07:12.603Z,12.73
2018-08-06T11:08:12.654Z,12.82
2018-08-06T11:09:12.586Z,12.68
2018-08-06T11:10:12.888Z,12.79
2018-08-06T11:11:12.564Z,12.7
2018-08-06T11:12:12.686Z,12.84
2018-08-06T11:13:12.586Z,12.92
2018-08-06T11:14:13.421Z,12.51
2018-08-06T11:15:12.575Z,12.76
2018-08-06T11:16:12.604Z,12.62
2018-08-06T11:17:13.039Z,12.84
2018-08-06T11:18:12.569Z,12.87
2018-08-06T11:19:12.736Z,12.79
2018-08-06T11:20:12.713Z,12.65
2018-08-06T11:21:12.669Z,12.65
2018-08-06T11:22:12.603Z,12.79
2018-08-06T11:23:12.565Z,12.83
2018-08-06T11:24:12.591Z,12.68
2018-08-06T11:25:12.595Z,12.79
2018-08-06T11:26:12.611Z,12.89
2018-08-06T11:27:12.603Z,12.93
2018-08-06T11:28:12.840Z,12.85
2018-08-06T11:29:12.640Z,12.79
2018-08-06T11:30:12.604Z,12.71
2018-08-06T11:31:12.573Z,12.74
2018-08-06T11:32:12.608Z,12.84
2018-08-06T11:33:12.568Z,12.79
2018-08-06T11:34:12.564Z,12.63
2018-08-06T11:35:12.540Z,12.65
2018-08-06T11:36:12.680Z,12.75
2018-08-06T11:37:12.632Z,12.66
2018-08-06T11:38:12.565Z,12.7
2018-08-06T11:39:12.568Z,12.65
2018-08-06T11:40:12.570Z,12.63
2018-08-06T11:41:12.547Z,12.76
2018-08-06T11:42:12.569Z,12.69
2018-08-06T11:43:12.641Z,12.42
2018-08-06T11:44:12.575Z,12.53
2018-08-06T11:45:12.570Z,12.5
2018-08-06T11:46:12.606Z,12.45
2018-08-06T11:47:12.577Z,12.58
2018-08-06T11:48:12.591Z,12.65
2018-08-06T11:49:12.635Z,12.69
2018-08-06T11:50:12.764Z,12.5
2018-08-06T11:51:12.611Z,12.57
2018-08-06T11:52:12.705Z,12.6
2018-08-06T11:53:12.587Z,12.53
2018-08-06T11:54:12.622Z,12.71
2018-08-06T11:55:13.735Z,12.68
2018-08-06T11:56:12.592Z,12.75
2018-08-06T11:57:12.574Z,12.64
2018-08-06T11:58:12.930Z,12.71
2018-08-06T11:59:12.612Z,12.69
2018-08-06T12:00:12.554Z,12.41
2018-08-06T12:01:12.576Z,12.5
2018-08-06T12:02:12.595Z,12.49
2018-08-06T12:03:12.626Z,12.45
2018-08-06T12:04:12.615Z,12.43
2018-08-06T12:05:12.585Z,12.52
2018-08-06T12:06:12.592Z,12.43
2018-08-06T12:07:12.653Z,12.51
2018-08-06T12:08:12.613Z,12.5
2018-08-06T12:09:12.669Z,12.25
2018-08-06T12:10:12.639Z,12.47
2018-08-06T12:11:12.627Z,12.74
2018-08-06T12:12:12.623Z,12.62
2018-08-06T12:13:12.613Z,12.74
2018-08-06T12:14:12.678Z,12.66
2018-08-06T12:15:13.407Z,12.66
2018-08-06T12:16:12.616Z,12.73
2018-08-06T12:17:12.656Z,12.65
2018-08-06T12:18:12.773Z,12.66
2018-08-06T12:19:12.709Z,12.44
2018-08-06T12:20:12.763Z,12.67
2018-08-06T12:21:12.684Z,12.83
2018-08-06T12:22:12.661Z,12.87
2018-08-06T12:23:12.641Z,12.62
2018-08-06T12:24:12.681Z,12.34
2018-08-06T12:25:12.922Z,12.3
2018-08-06T12:26:13.620Z,12.65
2018-08-06T12:27:12.866Z,12.71
2018-08-06T12:28:12.644Z,12.78
2018-08-06T12:29:12.928Z,12.56
2018-08-06T12:30:12.966Z,12.67
2018-08-06T12:31:13.231Z,12.79
2018-08-06T12:32:12.644Z,12.46
2018-08-06T12:33:12.874Z,12.43
2018-08-06T12:34:12.634Z,12.45
2018-08-06T12:35:12.972Z,12.48
2018-08-06T12:36:12.719Z,12.47
2018-08-06T12:37:12.621Z,12.52
2018-08-06T12:38:13.437Z,12.49
2018-08-06T12:39:12.677Z,12.59
2018-08-06T12:40:12.765Z,12.39
2018-08-06T12:41:12.639Z,12.33
2018-08-06T12:42:12.765Z,12.46
2018-08-06T12:43:12.802Z,12.42
2018-08-06T12:44:12.640Z,12.57
2018-08-06T12:45:12.660Z,12.71
2018-08-06T12:46:13.304Z,12.73
2018-08-06T12:47:12.724Z,12.78
2018-08-06T12:48:12.745Z,12.67
2018-08-06T12:49:12.644Z,12.21
2018-08-06T12:50:12.805Z,12.32
2018-08-06T12:51:13.014Z,12.52
2018-08-06T12:52:12.806Z,12.48
2018-08-06T12:53:12.700Z,12.43
2018-08-06T12:54:12.672Z,12.57
2018-08-06T12:55:12.727Z,12.44